sensor_id;sensor_type;location;lat;lon;timestamp;pressure;altitude;pressure_sealevel;temperature;humidity
72162;BME280;60047;51.644;5.842;2022-12-16T17:57:35;101790.0;;;17.0;43.5
72162;BME280;60047;51.644;5.842;2022-12-16T18:02:35;101800.0;;;17.7;43.0
72162;BME280;60047;51.644;5.842;2022-12-16T18:07:35;101800.0;;;18.2;42.0
72162;BME280;60047;51.644;5.842;2022-12-16T18:12:35;101810.0;;;18.7;41.5
72162;BME280;60047;51.644;5.842;2022-12-16T18:17:35;101820.0;;;19.1;40.5
72162;BME280;60047;51.644;5.842;2022-12-16T18:22:35;101820.0;;;19.4;40.0
72162;BME280;60047;51.644;5.842;2022-12-16T18:27:36;101830.0;;;19.6;39.5
72162;BME280;60047;51.644;5.842;2022-12-16T18:32:35;101830.0;;;19.8;39.5
72162;BME280;60047;51.644;5.842;2022-12-16T18:37:35;101830.0;;;20.0;39.0
72162;BME280;60047;51.644;5.842;2022-12-16T18:42:35;101840.0;;;20.1;38.5
72162;BME280;60047;51.644;5.842;2022-12-16T18:47:35;101840.0;;;20.2;38.5
72162;BME280;60047;51.644;5.842;2022-12-16T18:52:35;101850.0;;;20.2;38.0
72162;BME280;60047;51.644;5.842;2022-12-16T18:57:35;101850.0;;;20.3;38.0
72162;BME280;60047;51.644;5.842;2022-12-16T19:02:35;101860.0;;;20.3;38.0
72162;BME280;60047;51.644;5.842;2022-12-16T19:07:35;101870.0;;;20.4;37.5
72162;BME280;60047;51.644;5.842;2022-12-16T19:12:35;101870.0;;;20.4;37.5
72162;BME280;60047;51.644;5.842;2022-12-16T19:17:35;101880.0;;;20.5;37.5
72162;BME280;60047;51.644;5.842;2022-12-16T19:22:35;101870.0;;;20.5;37.5
72162;BME280;60047;51.644;5.842;2022-12-16T19:27:35;101880.0;;;20.5;37.5
72162;BME280;60047;51.644;5.842;2022-12-16T19:32:35;101890.0;;;20.5;37.0
72162;BME280;60047;51.644;5.842;2022-12-16T19:37:35;101890.0;;;20.5;37.0
72162;BME280;60047;51.644;5.842;2022-12-16T19:42:35;101900.0;;;20.5;37.0
72162;BME280;60047;51.644;5.842;2022-12-16T19:47:35;101900.0;;;20.5;37.0
72162;BME280;60047;51.644;5.842;2022-12-16T19:52:35;101900.0;;;20.5;37.0
72162;BME280;60047;51.644;5.842;2022-12-16T19:57:35;101900.0;;;20.6;37.0
72162;BME280;60047;51.644;5.842;2022-12-16T20:02:35;101910.0;;;20.6;37.0
72162;BME280;60047;51.644;5.842;2022-12-16T20:07:35;101910.0;;;20.6;37.0
72162;BME280;60047;51.644;5.842;2022-12-16T20:12:35;101920.0;;;20.6;36.5
72162;BME280;60047;51.644;5.842;2022-12-16T20:17:35;101920.0;;;20.6;36.5
72162;BME280;60047;51.644;5.842;2022-12-16T20:22:35;101930.0;;;20.6;36.5
72162;BME280;60047;51.644;5.842;2022-12-16T20:27:35;101930.0;;;20.6;36.5
72162;BME280;60047;51.644;5.842;2022-12-16T20:32:35;101940.0;;;20.6;36.5
72162;BME280;60047;51.644;5.842;2022-12-16T20:37:35;101950.0;;;20.6;36.5
72162;BME280;60047;51.644;5.842;2022-12-16T20:47:35;101950.0;;;20.6;36.5
72162;BME280;60047;51.644;5.842;2022-12-16T20:52:35;101960.0;;;20.6;36.5
72162;BME280;60047;51.644;5.842;2022-12-16T20:57:35;101970.0;;;20.6;36.5
72162;BME280;60047;51.644;5.842;2022-12-16T21:02:35;101970.0;;;20.6;36.5
72162;BME280;60047;51.644;5.842;2022-12-16T21:07:35;101970.0;;;20.6;36.5
72162;BME280;60047;51.644;5.842;2022-12-16T21:12:35;101980.0;;;20.6;36.5
72162;BME280;60047;51.644;5.842;2022-12-16T21:17:35;101990.0;;;20.6;36.5
72162;BME280;60047;51.644;5.842;2022-12-16T21:22:35;101990.0;;;20.6;36.5
72162;BME280;60047;51.644;5.842;2022-12-16T21:27:35;101990.0;;;20.6;36.5
72162;BME280;60047;51.644;5.842;2022-12-16T21:32:35;102010.0;;;20.6;36.5
72162;BME280;60047;51.644;5.842;2022-12-16T21:37:35;102000.0;;;20.6;36.5
72162;BME280;60047;51.644;5.842;2022-12-16T21:42:35;102020.0;;;20.6;36.5
72162;BME280;60047;51.644;5.842;2022-12-16T21:47:35;102030.0;;;20.6;36.0
72162;BME280;60047;51.644;5.842;2022-12-16T21:52:35;102030.0;;;20.6;36.0
72162;BME280;60047;51.644;5.842;2022-12-16T21:57:35;102040.0;;;20.6;36.0
72162;BME280;60047;51.644;5.842;2022-12-16T22:02:35;102030.0;;;20.6;36.0
72162;BME280;60047;51.644;5.842;2022-12-16T22:07:35;102040.0;;;20.6;36.0
72162;BME280;60047;51.644;5.842;2022-12-16T22:12:35;102030.0;;;20.6;36.0
72162;BME280;60047;51.644;5.842;2022-12-16T22:17:35;102050.0;;;20.6;36.0
72162;BME280;60047;51.644;5.842;2022-12-16T22:22:35;102060.0;;;20.6;36.0
72162;BME280;60047;51.644;5.842;2022-12-16T22:27:35;102060.0;;;20.6;36.0
72162;BME280;60047;51.644;5.842;2022-12-16T22:32:35;102060.0;;;20.6;36.0
72162;BME280;60047;51.644;5.842;2022-12-16T22:37:35;102070.0;;;20.6;36.0
72162;BME280;60047;51.644;5.842;2022-12-16T22:42:35;102060.0;;;20.6;36.0
72162;BME280;60047;51.644;5.842;2022-12-16T22:47:35;102070.0;;;20.5;36.0
72162;BME280;60047;51.644;5.842;2022-12-16T22:52:35;102080.0;;;20.5;36.0
72162;BME280;60047;51.644;5.842;2022-12-16T22:57:35;102070.0;;;20.5;36.0
72162;BME280;60047;51.644;5.842;2022-12-16T23:02:35;102080.0;;;20.5;36.0
72162;BME280;60047;51.644;5.842;2022-12-16T23:07:35;102080.0;;;20.5;36.0
72162;BME280;60047;51.644;5.842;2022-12-16T23:12:35;102080.0;;;20.5;36.0
72162;BME280;60047;51.644;5.842;2022-12-16T23:17:35;102080.0;;;20.5;36.0
72162;BME280;60047;51.644;5.842;2022-12-16T23:22:35;102080.0;;;20.5;36.0
72162;BME280;60047;51.644;5.842;2022-12-16T23:27:35;102090.0;;;20.5;36.0
72162;BME280;60047;51.644;5.842;2022-12-16T23:32:35;102090.0;;;20.5;36.0
72162;BME280;60047;51.644;5.842;2022-12-16T23:37:35;102080.0;;;20.5;36.0
72162;BME280;60047;51.644;5.842;2022-12-16T23:42:36;102090.0;;;20.5;36.0
72162;BME280;60047;51.644;5.842;2022-12-16T23:47:36;102100.0;;;20.5;36.0
